Time;durP1;ratioP1;P1;durP2;ratioP2;P2;SDS_P1;SDS_P2;PMS_P1;PMS_P2;Temp;Humidity;BMP_temperature;BMP_pressure;BME280_temperature;BME280_humidity;BME280_pressure;Samples;Min_cycle;Max_cycle;Signal;HPM_P1;HPM_P2
2022/02/23 00:01:07;;;;;;;13.15;2.42;;;;;;;;;;4980877;28;20042;-71
2022/02/23 00:03:34;;;;;;;16.55;2.38;;;;;;;;;;4984117;28;20054;-71
2022/02/23 00:06:00;;;;;;;27.73;3.53;;;;;;;;;;4976259;28;20051;-70
2022/02/23 00:08:26;;;;;;;17.98;2.28;;;;;;;;;;4975769;28;20046;-70
2022/02/23 00:10:52;;;;;;;14.10;2.20;;;;;;;;;;4974577;28;20139;-70
2022/02/23 00:13:19;;;;;;;19.38;3.17;;;;;;;;;;4982220;28;20057;-70
2022/02/23 00:15:45;;;;;;;21.05;3.08;;;;;;;;;;4987173;28;20069;-70
2022/02/23 00:18:12;;;;;;;16.90;2.33;;;;;;;;;;4982655;28;20057;-70
2022/02/23 00:20:41;;;;;;;12.80;2.78;;;;;;;;;;4979977;28;20058;-70
2022/02/23 00:23:08;;;;;;;15.95;2.60;;;;;;;;;;4969675;28;20492;-71
2022/02/23 00:25:34;;;;;;;14.10;2.50;;;;;;;;;;4979255;28;20074;-71
2022/02/23 00:28:01;;;;;;;14.50;2.22;;;;;;;;;;4974553;28;20566;-71
2022/02/23 00:30:27;;;;;;;20.40;2.40;;;;;;;;;;4982657;28;20721;-71
2022/02/23 00:32:55;;;;;;;21.27;2.97;;;;;;;;;;4973588;28;20057;-70
2022/02/23 00:35:21;;;;;;;12.90;1.50;;;;;;;;;;4976046;28;20057;-71
2022/02/23 00:37:48;;;;;;;9.43;2.00;;;;;;;;;;4976793;28;20056;-70
2022/02/23 00:40:14;;;;;;;17.20;2.65;;;;;;;;;;4975937;28;20046;-70
2022/02/23 00:42:41;;;;;;;16.98;2.72;;;;;;;;;;4981660;28;20050;-70
2022/02/23 00:45:07;;;;;;;22.13;2.97;;;;;;;;;;4977442;28;20054;-71
2022/02/23 00:47:35;;;;;;;24.23;2.90;;;;;;;;;;4993292;28;20061;-71
2022/02/23 00:50:01;;;;;;;12.77;2.45;;;;;;;;;;4975944;28;20423;-70
2022/02/23 00:52:28;;;;;;;18.35;2.45;;;;;;;;;;4977996;28;20046;-70
2022/02/23 00:54:54;;;;;;;17.48;2.78;;;;;;;;;;4980439;28;20061;-71
2022/02/23 00:57:20;;;;;;;10.88;1.85;;;;;;;;;;4975714;28;20291;-71
2022/02/23 00:59:47;;;;;;;19.35;2.60;;;;;;;;;;4980835;28;20054;-72
2022/02/23 01:02:13;;;;;;;12.38;2.78;;;;;;;;;;4963555;28;20062;-72
2022/02/23 01:04:39;;;;;;;15.05;2.55;;;;;;;;;;4971329;28;20254;-72
2022/02/23 01:07:06;;;;;;;14.02;2.40;;;;;;;;;;4980912;28;20046;-72
2022/02/23 01:09:32;;;;;;;17.85;1.90;;;;;;;;;;4973757;28;20271;-72
2022/02/23 01:11:59;;;;;;;16.20;2.88;;;;;;;;;;4982423;28;20493;-72
2022/02/23 01:14:25;;;;;;;17.13;2.42;;;;;;;;;;4979023;28;20042;-71
2022/02/23 01:16:52;;;;;;;16.45;2.47;;;;;;;;;;4966678;28;20323;-71
2022/02/23 01:19:18;;;;;;;17.25;2.80;;;;;;;;;;4977458;28;20053;-71
2022/02/23 01:21:44;;;;;;;14.95;2.72;;;;;;;;;;4979928;28;20398;-71
2022/02/23 01:24:11;;;;;;;18.40;2.22;;;;;;;;;;4996633;28;20061;-71
2022/02/23 01:26:37;;;;;;;15.63;2.33;;;;;;;;;;4984070;28;20065;-71
2022/02/23 01:29:03;;;;;;;20.45;2.58;;;;;;;;;;4980040;28;20058;-72
2022/02/23 01:31:29;;;;;;;18.95;2.60;;;;;;;;;;4970214;28;20050;-71
2022/02/23 01:33:56;;;;;;;16.23;2.28;;;;;;;;;;4979985;28;20430;-71
2022/02/23 01:36:22;;;;;;;18.35;2.53;;;;;;;;;;4976659;28;20504;-72
2022/02/23 01:38:48;;;;;;;14.05;2.40;;;;;;;;;;4986576;28;20057;-71
2022/02/23 01:41:19;;;;;;;11.73;2.35;;;;;;;;;;4981873;28;20057;-72
2022/02/23 01:43:46;;;;;;;16.25;2.60;;;;;;;;;;4972997;28;20046;-72
2022/02/23 01:46:13;;;;;;;12.93;2.00;;;;;;;;;;4979165;28;20046;-72
2022/02/23 01:48:39;;;;;;;19.88;3.03;;;;;;;;;;4976337;28;20058;-71
2022/02/23 01:51:06;;;;;;;22.73;3.08;;;;;;;;;;4985573;28;20149;-71
2022/02/23 01:53:33;;;;;;;15.13;2.30;;;;;;;;;;4977693;28;20051;-71
2022/02/23 01:55:59;;;;;;;23.02;2.95;;;;;;;;;;4988164;28;20046;-71
2022/02/23 01:58:25;;;;;;;18.65;2.72;;;;;;;;;;4978188;28;20057;-70
2022/02/23 02:00:51;;;;;;;18.67;2.97;;;;;;;;;;4972870;28;20055;-70
2022/02/23 02:03:18;;;;;;;15.73;2.85;;;;;;;;;;4982837;28;20483;-70
2022/02/23 02:05:44;;;;;;;18.30;2.28;;;;;;;;;;4981165;28;20467;-70
2022/02/23 02:08:11;;;;;;;15.07;2.53;;;;;;;;;;4983618;28;20061;-71
2022/02/23 02:10:37;;;;;;;14.18;1.92;;;;;;;;;;4983196;28;20426;-70
2022/02/23 02:13:03;;;;;;;16.65;2.63;;;;;;;;;;4968818;28;20778;-70
2022/02/23 02:15:29;;;;;;;15.77;2.28;;;;;;;;;;4978546;28;20065;-70
2022/02/23 02:17:56;;;;;;;14.00;2.35;;;;;;;;;;4975203;28;20061;-70
2022/02/23 02:20:22;;;;;;;17.58;2.28;;;;;;;;;;4985489;28;20054;-70
2022/02/23 02:22:48;;;;;;;9.05;2.03;;;;;;;;;;4975543;28;20053;-71
2022/02/23 02:25:14;;;;;;;18.80;2.67;;;;;;;;;;4979128;28;20265;-71
2022/02/23 02:27:41;;;;;;;19.40;2.28;;;;;;;;;;4984578;28;20057;-70
2022/02/23 02:30:07;;;;;;;15.02;3.13;;;;;;;;;;4974040;28;20047;-70
2022/02/23 02:32:34;;;;;;;14.23;2.40;;;;;;;;;;4992670;28;20053;-70
2022/02/23 02:35:00;;;;;;;18.73;2.42;;;;;;;;;;4977427;28;20679;-70
2022/02/23 02:37:27;;;;;;;17.75;2.65;;;;;;;;;;4983800;28;20423;-71
2022/02/23 02:39:53;;;;;;;17.90;2.53;;;;;;;;;;4972500;28;20053;-71
2022/02/23 02:42:22;;;;;;;17.98;2.83;;;;;;;;;;4988828;28;20054;-71
2022/02/23 02:44:48;;;;;;;14.13;2.00;;;;;;;;;;4982723;28;20053;-70
2022/02/23 02:47:16;;;;;;;17.80;2.50;;;;;;;;;;4972264;28;20050;-71
2022/02/23 02:49:42;;;;;;;12.32;2.78;;;;;;;;;;4981273;28;20057;-71
2022/02/23 02:52:08;;;;;;;18.08;2.38;;;;;;;;;;4975748;28;20486;-70
2022/02/23 02:54:36;;;;;;;16.25;2.45;;;;;;;;;;4980852;28;20050;-70
2022/02/23 02:57:03;;;;;;;19.48;2.97;;;;;;;;;;4978952;28;20488;-70
2022/02/23 02:59:29;;;;;;;17.92;2.42;;;;;;;;;;4989699;28;20050;-70
2022/02/23 03:01:56;;;;;;;20.60;2.72;;;;;;;;;;4984883;28;20097;-70
2022/02/23 03:04:25;;;;;;;15.85;2.25;;;;;;;;;;4986997;28;20046;-70
2022/02/23 03:06:51;;;;;;;22.55;2.95;;;;;;;;;;4987638;28;20053;-70
2022/02/23 03:09:18;;;;;;;19.30;2.78;;;;;;;;;;4974981;28;20535;-70
2022/02/23 03:11:44;;;;;;;20.63;2.83;;;;;;;;;;4981268;28;20046;-70
2022/02/23 03:14:10;;;;;;;12.38;1.80;;;;;;;;;;4983743;28;20393;-71
2022/02/23 03:16:37;;;;;;;18.55;2.80;;;;;;;;;;4980045;28;20611;-70
2022/02/23 03:19:03;;;;;;;15.20;3.15;;;;;;;;;;4982454;28;20057;-70
2022/02/23 03:21:29;;;;;;;14.07;2.92;;;;;;;;;;4972948;28;20133;-70
2022/02/23 03:23:56;;;;;;;18.73;2.38;;;;;;;;;;4980906;28;20123;-70
2022/02/23 03:26:23;;;;;;;15.90;2.30;;;;;;;;;;4977019;28;20042;-70
2022/02/23 03:28:49;;;;;;;11.05;2.60;;;;;;;;;;4983865;28;20121;-70
2022/02/23 03:31:15;;;;;;;10.85;2.50;;;;;;;;;;4986259;28;20045;-70
2022/02/23 03:33:42;;;;;;;14.75;2.80;;;;;;;;;;4968741;28;20053;-70
2022/02/23 03:36:10;;;;;;;11.23;2.70;;;;;;;;;;4977044;28;20058;-70
2022/02/23 03:38:37;;;;;;;19.20;4.15;;;;;;;;;;4961260;28;20054;-69
2022/02/23 03:41:03;;;;;;;15.05;2.70;;;;;;;;;;4993583;28;20400;-69
2022/02/23 03:43:29;;;;;;;14.05;2.40;;;;;;;;;;4976826;28;20054;-69
2022/02/23 03:45:56;;;;;;;16.98;2.83;;;;;;;;;;4989203;28;20484;-68
2022/02/23 03:48:22;;;;;;;17.08;2.80;;;;;;;;;;4983654;28;20043;-69
2022/02/23 03:50:49;;;;;;;12.48;2.30;;;;;;;;;;4970941;28;20189;-69
2022/02/23 03:53:15;;;;;;;16.25;2.70;;;;;;;;;;4981370;28;20574;-69
2022/02/23 03:55:42;;;;;;;13.30;3.45;;;;;;;;;;4975551;28;20499;-69
2022/02/23 03:58:09;;;;;;;13.20;2.58;;;;;;;;;;4984228;28;20397;-69
2022/02/23 04:00:35;;;;;;;14.32;2.85;;;;;;;;;;4976868;28;20050;-69
2022/02/23 04:03:02;;;;;;;16.38;2.80;;;;;;;;;;4979126;28;20054;-70
2022/02/23 04:05:28;;;;;;;12.52;2.85;;;;;;;;;;4977552;28;20584;-69
2022/02/23 04:07:54;;;;;;;19.35;2.88;;;;;;;;;;4985251;28;20055;-69
2022/02/23 04:10:23;;;;;;;18.92;2.58;;;;;;;;;;4973759;28;20045;-68
2022/02/23 04:12:49;;;;;;;13.68;2.35;;;;;;;;;;4975510;28;20054;-68
2022/02/23 04:15:16;;;;;;;20.15;2.85;;;;;;;;;;4982440;28;20403;-68
2022/02/23 04:17:44;;;;;;;14.82;2.30;;;;;;;;;;4971587;28;20053;-68
2022/02/23 04:20:11;;;;;;;8.45;2.35;;;;;;;;;;4980842;28;20053;-69
2022/02/23 04:22:37;;;;;;;16.92;3.97;;;;;;;;;;4987887;28;20058;-70
2022/02/23 04:25:04;;;;;;;15.07;2.63;;;;;;;;;;4973775;28;20050;-68
2022/02/23 04:27:31;;;;;;;17.63;2.97;;;;;;;;;;4983759;28;20058;-69
2022/02/23 04:29:57;;;;;;;16.92;2.67;;;;;;;;;;4976711;28;20747;-70
2022/02/23 04:32:23;;;;;;;19.33;2.88;;;;;;;;;;4970418;28;20050;-68
2022/02/23 04:34:53;;;;;;;14.07;2.70;;;;;;;;;;4972680;28;20050;-68
2022/02/23 04:37:20;;;;;;;19.35;3.72;;;;;;;;;;4971895;28;20046;-68
2022/02/23 04:39:47;;;;;;;14.82;3.15;;;;;;;;;;4985018;28;20050;-68
2022/02/23 04:42:13;;;;;;;14.25;3.08;;;;;;;;;;4975921;28;20532;-70
2022/02/23 04:44:40;;;;;;;14.20;3.22;;;;;;;;;;4976884;28;20050;-70
2022/02/23 04:47:06;;;;;;;14.82;2.45;;;;;;;;;;4971460;28;20042;-70
2022/02/23 04:49:33;;;;;;;14.05;3.25;;;;;;;;;;4992339;28;20053;-69
2022/02/23 04:52:00;;;;;;;23.83;3.50;;;;;;;;;;4983059;28;20050;-70
2022/02/23 04:54:27;;;;;;;19.23;3.65;;;;;;;;;;4987631;28;20125;-68
2022/02/23 04:56:54;;;;;;;13.52;2.65;;;;;;;;;;4982496;28;20113;-69
2022/02/23 04:59:21;;;;;;;13.02;3.10;;;;;;;;;;4973399;28;20496;-68
2022/02/23 05:01:47;;;;;;;17.90;3.55;;;;;;;;;;4980967;28;20515;-68
2022/02/23 05:04:13;;;;;;;14.02;3.03;;;;;;;;;;4978634;28;20046;-68
2022/02/23 05:06:39;;;;;;;14.15;3.00;;;;;;;;;;4984676;28;20051;-70
2022/02/23 05:09:06;;;;;;;13.25;2.50;;;;;;;;;;4977352;28;20547;-70
2022/02/23 05:11:32;;;;;;;11.73;2.60;;;;;;;;;;4985720;28;20064;-70
2022/02/23 05:13:59;;;;;;;13.52;2.90;;;;;;;;;;4967604;28;20569;-70
2022/02/23 05:16:25;;;;;;;13.40;2.88;;;;;;;;;;4973704;28;20058;-70
2022/02/23 05:18:52;;;;;;;10.13;2.20;;;;;;;;;;4986593;28;20496;-69
2022/02/23 05:21:18;;;;;;;13.70;2.75;;;;;;;;;;4987524;28;20474;-70
2022/02/23 05:23:45;;;;;;;9.50;2.88;;;;;;;;;;4994449;28;20723;-70
2022/02/23 05:26:14;;;;;;;11.80;3.08;;;;;;;;;;4973138;28;20428;-70
2022/02/23 05:28:40;;;;;;;7.68;2.22;;;;;;;;;;4971066;28;20622;-69
2022/02/23 05:31:06;;;;;;;16.98;3.33;;;;;;;;;;4986279;28;20098;-70
2022/02/23 05:33:32;;;;;;;13.15;3.10;;;;;;;;;;4977476;28;20070;-69
2022/02/23 05:36:00;;;;;;;10.77;2.40;;;;;;;;;;4981824;28;20767;-69
2022/02/23 05:38:27;;;;;;;13.38;2.70;;;;;;;;;;4976533;28;20049;-70
2022/02/23 05:40:55;;;;;;;13.38;3.00;;;;;;;;;;4981996;28;20377;-70
2022/02/23 05:43:21;;;;;;;20.05;3.65;;;;;;;;;;4977521;28;20494;-70
2022/02/23 05:45:48;;;;;;;15.30;3.17;;;;;;;;;;4979098;28;20062;-70
2022/02/23 05:48:15;;;;;;;14.25;3.05;;;;;;;;;;4989599;28;20137;-70
2022/02/23 05:50:41;;;;;;;14.90;3.35;;;;;;;;;;4981399;28;20122;-70
2022/02/23 05:53:10;;;;;;;15.57;3.20;;;;;;;;;;4988525;28;20060;-70
2022/02/23 05:55:36;;;;;;;19.58;3.47;;;;;;;;;;4971968;28;20489;-70
2022/02/23 05:58:02;;;;;;;14.70;2.92;;;;;;;;;;4989432;28;20058;-70
2022/02/23 06:00:28;;;;;;;18.80;3.10;;;;;;;;;;4989334;28;20046;-70
2022/02/23 06:02:55;;;;;;;21.25;3.53;;;;;;;;;;4969350;28;20069;-70
2022/02/23 06:05:21;;;;;;;15.80;3.05;;;;;;;;;;4980245;28;20515;-69
2022/02/23 06:07:47;;;;;;;19.35;3.40;;;;;;;;;;4994877;28;20050;-70
2022/02/23 06:10:14;;;;;;;11.73;3.13;;;;;;;;;;4978899;28;20053;-70
2022/02/23 06:12:41;;;;;;;19.25;3.38;;;;;;;;;;4976416;28;20098;-69
2022/02/23 06:15:07;;;;;;;13.07;3.40;;;;;;;;;;4981370;28;20381;-70
2022/02/23 06:17:33;;;;;;;12.05;2.85;;;;;;;;;;4985902;28;20266;-70
2022/02/23 06:20:00;;;;;;;14.57;3.08;;;;;;;;;;4974623;28;20049;-70
2022/02/23 06:22:27;;;;;;;14.25;3.28;;;;;;;;;;4981666;28;20050;-69
2022/02/23 06:24:53;;;;;;;13.70;3.33;;;;;;;;;;4974662;28;20523;-69
2022/02/23 06:27:19;;;;;;;13.30;3.00;;;;;;;;;;4989340;28;20060;-70
2022/02/23 06:29:46;;;;;;;12.23;2.72;;;;;;;;;;4989124;28;20069;-69
2022/02/23 06:32:12;;;;;;;15.70;2.90;;;;;;;;;;4972538;28;20138;-69
2022/02/23 06:34:38;;;;;;;11.75;3.25;;;;;;;;;;4983954;28;20412;-70
2022/02/23 06:37:06;;;;;;;17.63;3.60;;;;;;;;;;4971659;28;20061;-69
2022/02/23 06:39:34;;;;;;;8.20;2.40;;;;;;;;;;4994401;28;20504;-70
2022/02/23 06:42:01;;;;;;;17.93;3.53;;;;;;;;;;4977602;28;20046;-70
2022/02/23 06:44:28;;;;;;;16.70;3.75;;;;;;;;;;4971833;28;20062;-70
2022/02/23 06:46:54;;;;;;;12.35;2.83;;;;;;;;;;4977957;28;20580;-70
2022/02/23 06:49:21;;;;;;;14.10;3.22;;;;;;;;;;4963898;28;20047;-70
2022/02/23 06:51:48;;;;;;;15.02;3.13;;;;;;;;;;4988213;28;20054;-70
2022/02/23 06:54:14;;;;;;;17.42;3.38;;;;;;;;;;4979610;28;20069;-70
2022/02/23 06:56:40;;;;;;;13.10;3.28;;;;;;;;;;4983238;28;20810;-70
2022/02/23 06:59:06;;;;;;;18.83;2.78;;;;;;;;;;4972686;28;20054;-69
2022/02/23 07:01:34;;;;;;;16.38;3.20;;;;;;;;;;4983863;28;20061;-70
2022/02/23 07:04:01;;;;;;;13.40;3.60;;;;;;;;;;4980736;28;20057;-69
2022/02/23 07:06:29;;;;;;;12.85;3.53;;;;;;;;;;4975329;28;20431;-68
2022/02/23 07:08:56;;;;;;;13.60;2.42;;;;;;;;;;4984458;28;20656;-69
2022/02/23 07:11:25;;;;;;;18.63;3.22;;;;;;;;;;4971237;28;20058;-69
2022/02/23 07:13:52;;;;;;;20.17;3.40;;;;;;;;;;4981776;28;20042;-70
2022/02/23 07:16:20;;;;;;;12.73;3.03;;;;;;;;;;4982224;28;20050;-70
2022/02/23 07:18:46;;;;;;;17.13;3.10;;;;;;;;;;4978792;28;20694;-70
2022/02/23 07:21:13;;;;;;;11.50;2.75;;;;;;;;;;4975435;28;20050;-69
2022/02/23 07:23:39;;;;;;;16.42;3.17;;;;;;;;;;4973945;28;20472;-69
2022/02/23 07:26:05;;;;;;;17.70;2.88;;;;;;;;;;4994700;28;20050;-70
2022/02/23 07:28:32;;;;;;;12.88;2.58;;;;;;;;;;4974595;28;20054;-70
2022/02/23 07:31:15;;;;;;;13.50;2.55;;;;;;;;;;4984487;28;20091;-69
2022/02/23 07:33:41;;;;;;;13.13;2.63;;;;;;;;;;4971797;28;20064;-69
2022/02/23 07:36:08;;;;;;;19.08;2.97;;;;;;;;;;4978722;28;20115;-69
2022/02/23 07:38:37;;;;;;;21.15;2.95;;;;;;;;;;4980306;28;20057;-69
2022/02/23 07:41:11;;;;;;;12.57;2.72;;;;;;;;;;4963833;28;20058;-69
2022/02/23 07:43:58;;;;;;;17.70;3.67;;;;;;;;;;4981957;28;20061;-70
2022/02/23 07:46:26;;;;;;;22.30;4.35;;;;;;;;;;4968546;28;20358;-69
2022/02/23 07:48:58;;;;;;;21.85;3.15;;;;;;;;;;4978256;28;20050;-69
2022/02/23 07:51:24;;;;;;;14.88;3.38;;;;;;;;;;4974836;28;20563;-69
2022/02/23 07:53:52;;;;;;;10.77;3.20;;;;;;;;;;4993136;28;20050;-69
2022/02/23 07:56:21;;;;;;;13.40;3.00;;;;;;;;;;4974659;28;20050;-69
2022/02/23 07:58:48;;;;;;;11.38;2.40;;;;;;;;;;4982717;28;20086;-69
2022/02/23 08:01:34;;;;;;;14.52;3.22;;;;;;;;;;4975965;28;20046;-69
2022/02/23 08:04:01;;;;;;;14.60;3.00;;;;;;;;;;4970194;28;20546;-69
2022/02/23 08:06:27;;;;;;;17.73;3.03;;;;;;;;;;4982121;28;20539;-69
2022/02/23 08:08:55;;;;;;;18.30;3.75;;;;;;;;;;4972826;28;20054;-69
2022/02/23 08:11:23;;;;;;;15.85;4.68;;;;;;;;;;4993182;28;20141;-69
2022/02/23 08:13:51;;;;;;;15.57;3.35;;;;;;;;;;4968737;28;20054;-69
2022/02/23 08:22:03;;;;;;;16.13;2.75;;;;;;;;;;4976915;28;20050;-69
2022/02/23 08:24:30;;;;;;;17.10;3.33;;;;;;;;;;4978528;28;20056;-69
2022/02/23 08:26:57;;;;;;;17.98;3.60;;;;;;;;;;4963975;28;20111;-69
2022/02/23 08:29:24;;;;;;;13.90;2.88;;;;;;;;;;4975392;28;20053;-69
2022/02/23 08:31:51;;;;;;;20.17;3.90;;;;;;;;;;4972995;28;20097;-69
2022/02/23 08:34:18;;;;;;;19.77;3.95;;;;;;;;;;4975281;28;20644;-69
2022/02/23 08:36:45;;;;;;;12.93;2.85;;;;;;;;;;4976511;28;20474;-69
2022/02/23 08:39:11;;;;;;;13.60;3.28;;;;;;;;;;5003060;28;20061;-70
2022/02/23 08:41:37;;;;;;;18.77;3.15;;;;;;;;;;4980442;28;20050;-69
2022/02/23 08:44:18;;;;;;;12.32;3.10;;;;;;;;;;4973632;28;20046;-69
2022/02/23 08:46:45;;;;;;;20.48;3.60;;;;;;;;;;4983849;28;20076;-69
2022/02/23 08:49:12;;;;;;;22.75;4.93;;;;;;;;;;4977559;28;20077;-69
2022/02/23 08:51:41;;;;;;;17.17;3.92;;;;;;;;;;4991972;28;20057;-69
2022/02/23 08:54:07;;;;;;;19.02;4.10;;;;;;;;;;4983987;28;20049;-69
2022/02/23 08:56:34;;;;;;;16.95;4.15;;;;;;;;;;4980104;28;20050;-69
2022/02/23 08:59:00;;;;;;;17.60;3.55;;;;;;;;;;4979228;28;20366;-70
2022/02/23 09:01:29;;;;;;;19.58;4.10;;;;;;;;;;4983982;28;20050;-69
2022/02/23 09:04:01;;;;;;;18.70;4.35;;;;;;;;;;4984070;28;20050;-70
2022/02/23 09:06:29;;;;;;;11.60;3.60;;;;;;;;;;4982277;28;20071;-69
2022/02/23 09:08:55;;;;;;;20.40;3.55;;;;;;;;;;4981252;28;20081;-69
2022/02/23 09:11:22;;;;;;;20.17;4.03;;;;;;;;;;4973922;28;20053;-69
2022/02/23 09:13:48;;;;;;;11.98;4.00;;;;;;;;;;4985112;28;20038;-69
2022/02/23 09:16:14;;;;;;;16.77;4.43;;;;;;;;;;4993677;28;20038;-70
2022/02/23 09:18:40;;;;;;;17.60;4.22;;;;;;;;;;4980008;28;20435;-69
2022/02/23 09:21:07;;;;;;;16.77;4.03;;;;;;;;;;4989373;28;20092;-69
2022/02/23 09:23:34;;;;;;;15.13;4.28;;;;;;;;;;4979618;28;20143;-69
2022/02/23 09:26:02;;;;;;;21.35;4.05;;;;;;;;;;4981243;28;20050;-70
2022/02/23 09:28:28;;;;;;;15.80;4.10;;;;;;;;;;4983235;28;20049;-69
2022/02/23 09:30:55;;;;;;;13.30;4.18;;;;;;;;;;4984816;28;20051;-69
2022/02/23 09:33:21;;;;;;;16.63;4.00;;;;;;;;;;4990260;28;20426;-69
2022/02/23 09:35:49;;;;;;;15.73;4.55;;;;;;;;;;4977543;28;20058;-70
2022/02/23 09:38:15;;;;;;;11.30;3.75;;;;;;;;;;4977113;28;20050;-70
2022/02/23 09:40:48;;;;;;;13.70;3.90;;;;;;;;;;4975673;28;20054;-70
2022/02/23 09:43:15;;;;;;;16.08;4.43;;;;;;;;;;4989461;28;20410;-69
2022/02/23 09:45:43;;;;;;;18.77;5.10;;;;;;;;;;4975005;28;20045;-70
2022/02/23 09:48:10;;;;;;;19.67;4.97;;;;;;;;;;4994080;28;20058;-69
2022/02/23 09:50:37;;;;;;;13.10;4.32;;;;;;;;;;4978340;28;20053;-70
2022/02/23 09:53:04;;;;;;;28.92;5.60;;;;;;;;;;4971231;28;20054;-69
2022/02/23 09:55:30;;;;;;;19.20;4.90;;;;;;;;;;4989446;28;20579;-70
2022/02/23 09:57:57;;;;;;;17.33;4.68;;;;;;;;;;4979769;28;20054;-70
2022/02/23 10:00:23;;;;;;;20.38;4.85;;;;;;;;;;4985046;28;20054;-70
2022/02/23 10:02:53;;;;;;;15.77;4.28;;;;;;;;;;4973623;28;20591;-69
2022/02/23 10:05:21;;;;;;;13.70;4.53;;;;;;;;;;4980243;28;20046;-70
2022/02/23 10:07:47;;;;;;;19.35;4.60;;;;;;;;;;4978208;28;20042;-70
2022/02/23 10:10:28;;;;;;;17.70;5.07;;;;;;;;;;4981274;28;20516;-70
2022/02/23 10:12:54;;;;;;;18.27;5.25;;;;;;;;;;4981754;28;20043;-70
2022/02/23 10:15:20;;;;;;;14.82;5.30;;;;;;;;;;4969035;28;20065;-70
2022/02/23 10:17:48;;;;;;;21.48;5.72;;;;;;;;;;4979548;28;20142;-72
2022/02/23 10:20:25;;;;;;;20.38;6.28;;;;;;;;;;4968924;28;20086;-70
2022/02/23 10:23:07;;;;;;;17.35;6.28;;;;;;;;;;4981968;28;20058;-70
2022/02/23 10:25:42;;;;;;;15.90;5.72;;;;;;;;;;4980108;28;20080;-70
2022/02/23 10:28:20;;;;;;;16.92;5.32;;;;;;;;;;4983195;28;20053;-70
2022/02/23 10:30:54;;;;;;;18.63;5.77;;;;;;;;;;4983314;28;20050;-68
2022/02/23 10:33:23;;;;;;;19.92;5.82;;;;;;;;;;4969115;28;20073;-69
2022/02/23 10:36:12;;;;;;;22.50;5.78;;;;;;;;;;4979379;28;20078;-70
2022/02/23 10:38:41;;;;;;;17.85;5.15;;;;;;;;;;4964289;28;20676;-71
2022/02/23 10:41:22;;;;;;;18.75;4.97;;;;;;;;;;4981897;28;20050;-70
2022/02/23 10:43:49;;;;;;;16.58;4.78;;;;;;;;;;4972572;28;20049;-68
2022/02/23 10:46:16;;;;;;;17.90;4.93;;;;;;;;;;4985506;28;20046;-70
2022/02/23 10:48:44;;;;;;;16.05;4.53;;;;;;;;;;4963645;28;20058;-71
2022/02/23 10:51:14;;;;;;;14.37;4.30;;;;;;;;;;4997038;28;20061;-71
2022/02/23 10:53:40;;;;;;;14.88;4.63;;;;;;;;;;4984965;28;20570;-68
2022/02/23 10:56:19;;;;;;;14.40;4.10;;;;;;;;;;4983709;28;20515;-68
2022/02/23 10:58:45;;;;;;;17.55;4.40;;;;;;;;;;4982114;28;20494;-69
2022/02/23 11:01:12;;;;;;;13.23;3.95;;;;;;;;;;4969603;28;20050;-69
2022/02/23 11:03:39;;;;;;;15.07;3.70;;;;;;;;;;4978259;28;20061;-68
2022/02/23 11:06:07;;;;;;;15.23;4.65;;;;;;;;;;4976805;28;20056;-68
2022/02/23 11:08:33;;;;;;;12.07;3.63;;;;;;;;;;4987321;28;20064;-68
2022/02/23 11:11:03;;;;;;;12.13;2.97;;;;;;;;;;4989364;28;20042;-70
2022/02/23 11:13:29;;;;;;;13.60;3.45;;;;;;;;;;4970072;28;20815;-70
2022/02/23 11:15:56;;;;;;;12.23;2.92;;;;;;;;;;4973822;28;20547;-70
2022/02/23 11:18:25;;;;;;;12.05;3.03;;;;;;;;;;4981845;28;20117;-70
2022/02/23 11:20:51;;;;;;;15.82;3.17;;;;;;;;;;4982188;28;20050;-71
2022/02/23 11:23:24;;;;;;;10.30;2.30;;;;;;;;;;4976510;28;20055;-70
2022/02/23 11:25:52;;;;;;;11.05;2.70;;;;;;;;;;4979149;28;20625;-70
2022/02/23 11:28:25;;;;;;;22.75;3.40;;;;;;;;;;4985837;28;20054;-70
2022/02/23 11:31:13;;;;;;;15.60;3.72;;;;;;;;;;4968071;28;20443;-71
2022/02/23 11:33:46;;;;;;;10.45;2.00;;;;;;;;;;4981708;28;20046;-70
2022/02/23 11:36:19;;;;;;;11.50;3.08;;;;;;;;;;4973884;28;20054;-70
2022/02/23 11:38:52;;;;;;;10.88;2.35;;;;;;;;;;4979153;28;20055;-70
2022/02/23 11:41:27;;;;;;;10.63;2.40;;;;;;;;;;4979383;28;20476;-70
2022/02/23 11:43:59;;;;;;;11.50;2.10;;;;;;;;;;4973557;28;20526;-70
2022/02/23 11:46:28;;;;;;;9.75;2.03;;;;;;;;;;4982697;28;20042;-68
2022/02/23 11:48:57;;;;;;;13.60;2.40;;;;;;;;;;4982261;28;20069;-70
2022/02/23 11:51:25;;;;;;;12.93;2.22;;;;;;;;;;4983523;28;20054;-71
2022/02/23 11:53:52;;;;;;;9.05;2.47;;;;;;;;;;4972982;28;20065;-70
2022/02/23 11:56:20;;;;;;;17.58;2.67;;;;;;;;;;4978817;28;20050;-69
2022/02/23 11:59:07;;;;;;;11.20;2.58;;;;;;;;;;4975935;28;20050;-69
2022/02/23 12:01:47;;;;;;;13.98;2.55;;;;;;;;;;4980867;28;20050;-70
2022/02/23 12:04:14;;;;;;;6.75;1.85;;;;;;;;;;4975268;28;20419;-70
2022/02/23 12:07:09;;;;;;;10.35;2.67;;;;;;;;;;4978051;28;20823;-70
2022/02/23 12:09:55;;;;;;;8.90;2.30;;;;;;;;;;4957939;28;20105;-70
2022/02/23 12:12:29;;;;;;;11.38;2.47;;;;;;;;;;4987361;28;20052;-70
2022/02/23 12:14:55;;;;;;;15.57;2.67;;;;;;;;;;4986268;28;20052;-69
2022/02/23 12:17:41;;;;;;;11.18;2.05;;;;;;;;;;4983330;28;20431;-68
2022/02/23 12:20:07;;;;;;;8.07;2.20;;;;;;;;;;4980736;28;20050;-69
2022/02/23 12:22:36;;;;;;;10.50;2.10;;;;;;;;;;4982404;28;20409;-68
2022/02/23 12:25:04;;;;;;;7.55;2.13;;;;;;;;;;4981479;28;20522;-68
2022/02/23 12:27:34;;;;;;;11.73;1.88;;;;;;;;;;4973985;28;20053;-69
2022/02/23 12:30:00;;;;;;;8.60;1.90;;;;;;;;;;4981028;28;20504;-70
2022/02/23 12:32:27;;;;;;;9.15;2.00;;;;;;;;;;4974170;28;20043;-70
2022/02/23 12:34:57;;;;;;;10.25;2.00;;;;;;;;;;4976193;28;20588;-69
2022/02/23 12:37:24;;;;;;;13.20;2.42;;;;;;;;;;4978767;28;20419;-69
2022/02/23 12:39:51;;;;;;;7.75;1.80;;;;;;;;;;4978606;28;20077;-69
2022/02/23 12:42:17;;;;;;;14.45;2.58;;;;;;;;;;4992848;28;20056;-68
2022/02/23 12:44:47;;;;;;;11.48;2.30;;;;;;;;;;4973415;28;20061;-68
2022/02/23 12:47:33;;;;;;;9.15;1.95;;;;;;;;;;4982414;28;20069;-69
2022/02/23 12:50:02;;;;;;;9.20;1.88;;;;;;;;;;4960086;28;20796;-69
2022/02/23 12:52:28;;;;;;;;;;;;;;;;;;4973862;28;20046;-69
2022/02/23 12:54:55;;;;;;;10.85;2.10;;;;;;;;;;4976396;28;19948;-69
2022/02/23 12:57:22;;;;;;;5.93;1.70;;;;;;;;;;4981784;28;20057;-69
2022/02/23 12:59:49;;;;;;;10.48;2.63;;;;;;;;;;4981550;28;20056;-69
2022/02/23 13:02:15;;;;;;;6.22;1.80;;;;;;;;;;4970051;28;20756;-69
2022/02/23 13:04:42;;;;;;;11.98;2.55;;;;;;;;;;4969501;28;20046;-68
2022/02/23 13:07:11;;;;;;;10.38;2.10;;;;;;;;;;4972442;28;20043;-69
2022/02/23 13:09:39;;;;;;;9.10;1.45;;;;;;;;;;4982568;28;20778;-68
2022/02/23 13:12:07;;;;;;;;;;;;;;;;;;4966742;28;20388;-68
2022/02/23 13:14:35;;;;;;;7.80;1.30;;;;;;;;;;4977414;28;19929;-68
2022/02/23 13:17:02;;;;;;;13.30;2.20;;;;;;;;;;4977890;28;20050;-68
2022/02/23 13:19:30;;;;;;;8.53;1.63;;;;;;;;;;4971899;28;20129;-70
2022/02/23 13:21:57;;;;;;;13.05;2.17;;;;;;;;;;4985670;28;20495;-70
2022/02/23 13:24:35;;;;;;;9.70;2.30;;;;;;;;;;4979109;28;20046;-69
2022/02/23 13:27:03;;;;;;;10.63;2.15;;;;;;;;;;4992113;28;20086;-70
2022/02/23 13:29:29;;;;;;;9.17;1.73;;;;;;;;;;4978111;28;20057;-70
2022/02/23 13:31:58;;;;;;;8.95;1.90;;;;;;;;;;4980079;28;20050;-70
2022/02/23 13:34:34;;;;;;;7.07;1.65;;;;;;;;;;4980405;28;20081;-69
2022/02/23 13:37:01;;;;;;;8.02;1.70;;;;;;;;;;4984556;28;20050;-69
2022/02/23 13:39:29;;;;;;;7.35;1.63;;;;;;;;;;4984300;28;20038;-69
2022/02/23 13:42:00;;;;;;;7.45;1.70;;;;;;;;;;4976123;28;20427;-71
2022/02/23 13:44:30;;;;;;;8.88;2.00;;;;;;;;;;4981157;28;20101;-70
2022/02/23 13:47:07;;;;;;;15.68;2.13;;;;;;;;;;4973895;28;20058;-69
2022/02/23 13:49:35;;;;;;;11.70;1.85;;;;;;;;;;4984726;28;20050;-70
2022/02/23 13:52:04;;;;;;;8.30;1.80;;;;;;;;;;4978498;28;20077;-71
2022/02/23 13:54:32;;;;;;;10.00;1.83;;;;;;;;;;4984848;28;20490;-68
2022/02/23 13:56:58;;;;;;;8.13;1.98;;;;;;;;;;4984557;28;20076;-69
2022/02/23 13:59:44;;;;;;;12.07;2.53;;;;;;;;;;4982318;28;20077;-69
2022/02/23 14:02:12;;;;;;;7.28;1.52;;;;;;;;;;4991865;28;20048;-69
2022/02/23 14:04:44;;;;;;;11.23;1.63;;;;;;;;;;4978368;28;20050;-68
2022/02/23 14:07:18;;;;;;;9.15;1.77;;;;;;;;;;4996529;28;20476;-69
2022/02/23 14:09:44;;;;;;;7.97;1.42;;;;;;;;;;4975373;28;20042;-68
2022/02/23 14:12:11;;;;;;;11.35;1.73;;;;;;;;;;4984734;28;20054;-69
2022/02/23 14:14:39;;;;;;;8.02;1.80;;;;;;;;;;4977365;28;20129;-69
2022/02/23 14:17:22;;;;;;;12.07;2.78;;;;;;;;;;4984565;28;20046;-68
2022/02/23 14:19:49;;;;;;;9.38;1.70;;;;;;;;;;4981239;28;20049;-68
2022/02/23 14:22:19;;;;;;;8.77;2.43;;;;;;;;;;4958727;28;20535;-68
2022/02/23 14:24:54;;;;;;;6.00;1.60;;;;;;;;;;4987075;28;20057;-69
2022/02/23 14:27:20;;;;;;;7.97;1.58;;;;;;;;;;4975156;28;20046;-68
2022/02/23 14:29:50;;;;;;;6.95;1.70;;;;;;;;;;4987033;28;20046;-70
2022/02/23 14:32:17;;;;;;;7.75;1.70;;;;;;;;;;4976731;28;20051;-70
2022/02/23 14:35:05;;;;;;;6.28;1.30;;;;;;;;;;4978655;28;20050;-70
2022/02/23 14:37:33;;;;;;;9.48;1.52;;;;;;;;;;4971496;28;20050;-69
2022/02/23 14:40:03;;;;;;;6.82;1.50;;;;;;;;;;4983081;28;20101;-70
2022/02/23 14:42:30;;;;;;;9.05;1.95;;;;;;;;;;4986335;28;20050;-70
2022/02/23 14:44:57;;;;;;;8.63;1.80;;;;;;;;;;4993401;28;20058;-69